MSC Lirica — HOPW — position and weather

sailwx.info

Track history (hours):
 
Tides and Currents Weather Stations Pressure Air Temp Water Temp Dewpoint Dewpoint Depression Visibility Wind Speed Wind Dir Waves Ship Positions

MSC Lirica

Operator: Mediterranean Shipping Company

Last reported at 2018-Sep-24 20:31 UTC. Time now 2018-Sep-24 22:01 UTC.
Position N 37°05' E 024°58'.

Length 275 m; draft 6.8 m.

Type: Ship. MMSI: 356042000.

Date/timePositionNaut miles runAvg speedWind from/ knotsBaromVisibWave heightAir tempDewpointWater temp
2018-Sep-24 20:31N 37°05' E 024°58'017.1
2018-Sep-24 20:31N 37°05' E 024°58'817.7
2018-Sep-24 20:03N 37°13' E 025°01'117.8
2018-Sep-24 20:00N 37°13' E 025°02'917.4
2018-Sep-24 19:31N 37°21' E 025°06'716.3
2018-Sep-24 19:03N 37°27' E 025°12'115.2
2018-Sep-24 19:00N 37°28' E 025°13'5 7.6
2018-Sep-24 18:19N 37°28' E 025°19'0 0.0
2018-Sep-24 18:03N 37°28' E 025°19'0 0.0
2018-Sep-24 18:00N 37°28' E 025°19'0 0.0
2018-Sep-24 17:30N 37°28' E 025°19'0 0.0
2018-Sep-24 17:03N 37°28' E 025°19'0 0.0
2018-Sep-24 17:00N 37°28' E 025°19'0 0.0
2018-Sep-24 16:30N 37°28' E 025°19'0 0.0
2018-Sep-24 16:00N 37°28' E 025°19'0 0.0
2018-Sep-24 15:29N 37°28' E 025°19'0 0.0
2018-Sep-24 15:02N 37°28' E 025°19'0 0.0
2018-Sep-24 14:59N 37°28' E 025°19'0 0.0
2018-Sep-24 14:29N 37°28' E 025°19'0 0.0
2018-Sep-24 13:59N 37°28' E 025°19'0 0.0
2018-Sep-24 13:28N 37°28' E 025°19'0 0.0
2018-Sep-24 13:01N 37°28' E 025°19'0 0.0
2018-Sep-24 12:58N 37°28' E 025°19'0 0.0
2018-Sep-24 12:28N 37°28' E 025°19'0 0.0
2018-Sep-24 12:01N 37°28' E 025°19'0 0.0
2018-Sep-24 11:58N 37°28' E 025°19'0 0.0
2018-Sep-24 11:28N 37°28' E 025°19'0 0.0
2018-Sep-24 11:03N 37°28' E 025°19'0 0.0
2018-Sep-24 11:00N 37°28' E 025°19'0 0.0
2018-Sep-24 10:30N 37°28' E 025°19'0 0.0
2018-Sep-24 10:03N 37°28' E 025°19'0 0.0
2018-Sep-24 10:00N 37°28' E 025°19'0 0.0
2018-Sep-24 09:30N 37°28' E 025°19'0 0.0
2018-Sep-24 09:03N 37°28' E 025°19'0 0.0
2018-Sep-24 08:59N 37°28' E 025°19'0 0.0
2018-Sep-24 08:28N 37°28' E 025°19'0 0.0
2018-Sep-24 08:02N 37°28' E 025°19'0 0.0
2018-Sep-24 07:59N 37°28' E 025°19'0 0.0
2018-Sep-24 07:29N 37°28' E 025°19'0 0.0
2018-Sep-24 07:02N 37°28' E 025°19'0 0.0
2018-Sep-24 06:59N 37°28' E 025°19'0 0.0
2018-Sep-24 06:28N 37°28' E 025°19'0 0.0
2018-Sep-24 06:01N 37°28' E 025°19'0 0.0
2018-Sep-24 05:58N 37°28' E 025°19'0 0.0
2018-Sep-24 05:28N 37°28' E 025°19'0 0.0
2018-Sep-24 05:01N 37°28' E 025°19'0 0.0
2018-Sep-24 04:58N 37°28' E 025°19'0 0.0
2018-Sep-24 04:28N 37°28' E 025°19'0 0.0
2018-Sep-24 04:03N 37°28' E 025°19'0 0.0
2018-Sep-24 04:00N 37°28' E 025°19'1 1.3
2018-Sep-24 03:30N 37°28' E 025°19'4 9.4
2018-Sep-24 03:03N 37°28' E 025°13'0 9.7
2018-Sep-24 03:00N 37°28' E 025°13'5 9.6
2018-Sep-24 02:30N 37°24' E 025°08'511.1
2018-Sep-24 02:01N 37°20' E 025°04'012.5
2018-Sep-24 02:00N 37°20' E 025°04'612.8
2018-Sep-24 01:30N 37°16' E 024°57'714.6
2018-Sep-24 01:04N 37°13' E 024°51'114.6
2018-Sep-24 01:01N 37°12' E 024°50'6914.2
2018-Sep-23 20:11N 36°35' E 023°37'514.3
2018-Sep-23 19:51N 36°32' E 023°32'1014.5
2018-Sep-23 19:10N 36°27' E 023°22'214.7
2018-Sep-23 19:03N 36°26' E 023°20'414.5
2018-Sep-23 18:47N 36°24' E 023°16'61214.0
2018-Sep-21 23:12N 43°46' E 014°02'620.1
2018-Sep-21 22:55N 43°50' E 013°56'1220.0
2018-Sep-21 22:19N 43°57' E 013°42'620.1
2018-Sep-21 22:03N 43°60' E 013°36'120.1
2018-Sep-21 22:00N 44°00' E 013°35'1020.2
2018-Sep-21 21:30N 44°06' E 013°23'920.0
2018-Sep-21 21:03N 44°11' E 013°13'119.7
2018-Sep-21 21:00N 44°12' E 013°13'1019.7
2018-Sep-21 20:30N 44°22' E 013°08'1019.4
2018-Sep-21 20:01N 44°31' E 013°04'019.9
2018-Sep-21 20:00N 44°31' E 013°04'1019.8
2018-Sep-21 19:29N 44°40' E 012°59'919.7
2018-Sep-21 19:02N 44°49' E 012°55'119.9
2018-Sep-21 19:00N 44°49' E 012°55'1019.9
2018-Sep-21 18:30N 44°58' E 012°48'919.6
2018-Sep-21 18:03N 45°06' E 012°42'119.7
2018-Sep-21 18:00N 45°07' E 012°41'1019.1
2018-Sep-21 17:29N 45°13' E 012°31'919.0
2018-Sep-21 17:02N 45°22' E 012°30'017.4
2018-Sep-21 17:00N 45°22' E 012°30'611.2
2018-Sep-21 16:30N 45°26' E 012°24'2 5.0
2018-Sep-21 16:03N 45°26' E 012°21'0 5.6
2018-Sep-21 16:00N 45°26' E 012°21'2 3.0
2018-Sep-21 15:30N 45°26' E 012°19'0 0.0
2018-Sep-21 15:03N 45°26' E 012°19'0 0.0
2018-Sep-21 15:00N 45°26' E 012°19'0 0.0
2018-Sep-21 14:03N 45°26' E 012°19'0 0.0
2018-Sep-21 13:29N 45°26' E 012°19'0 0.0
2018-Sep-21 13:02N 45°26' E 012°19'0 0.0
2018-Sep-21 12:59N 45°26' E 012°19'0 0.0
2018-Sep-21 12:29N 45°26' E 012°19'0 0.0
2018-Sep-21 12:02N 45°26' E 012°19'0 0.0
2018-Sep-21 11:59N 45°26' E 012°19'0 0.0
2018-Sep-21 11:28N 45°26' E 012°19'0 0.0
2018-Sep-21 11:01N 45°26' E 012°19'0 0.0
2018-Sep-21 10:58N 45°26' E 012°19'0 0.0
2018-Sep-21 10:25N 45°26' E 012°19'0 0.0
2018-Sep-21 10:01N 45°26' E 012°19'0 0.0
2018-Sep-21 09:58N 45°26' E 012°19'0 0.0
2018-Sep-21 09:28N 45°26' E 012°19'0 0.0
2018-Sep-21 09:03N 45°26' E 012°19'0 0.0
2018-Sep-21 09:00N 45°26' E 012°19'0 0.0
2018-Sep-21 08:30N 45°26' E 012°19'0 0.0
2018-Sep-21 08:03N 45°26' E 012°19'0 0.0
2018-Sep-21 08:00N 45°26' E 012°19'0 0.0
2018-Sep-21 07:30N 45°26' E 012°19'0 0.0
2018-Sep-21 07:03N 45°26' E 012°19'0 0.0
2018-Sep-21 07:00N 45°26' E 012°19'0 0.0
2018-Sep-21 06:29N 45°26' E 012°19'0 0.0
2018-Sep-21 06:02N 45°26' E 012°19'0 0.0
2018-Sep-21 05:59N 45°26' E 012°19'0 0.0
2018-Sep-21 05:29N 45°26' E 012°19'1 1.6
2018-Sep-21 05:03N 45°26' E 012°19'0 5.8
2018-Sep-21 05:00N 45°26' E 012°20'2 4.7
2018-Sep-21 04:30N 45°26' E 012°23'4 8.0
2018-Sep-21 04:04N 45°25' E 012°28'110.0
2018-Sep-21 04:00N 45°24' E 012°28'612.6
2018-Sep-21 03:30N 45°18' E 012°32'917.4
2018-Sep-21 02:59N 45°12' E 012°42'919.1
2018-Sep-21 02:31N 45°07' E 012°51'1019.2
2018-Sep-21 02:00N 45°02' E 013°04'1020.0
2018-Sep-21 01:30N 44°58' E 013°16'919.2
2018-Sep-21 01:04N 44°52' E 013°25'119.7
2018-Sep-21 01:00N 44°51' E 013°26'1019.9
2018-Sep-21 00:31N 44°43' E 013°34'1020.0
2018-Sep-21 00:01N 44°35' E 013°42'019.2
2018-Sep-21 00:00N 44°35' E 013°42'1020.0
2018-Sep-20 23:30N 44°26' E 013°49'920.0
2018-Sep-20 23:02N 44°19' E 013°57'119.8
2018-Sep-20 23:00N 44°18' E 013°57'1019.9
2018-Sep-20 22:31N 44°10' E 014°05'920.0
2018-Sep-20 22:03N 44°02' E 014°12'120.0
2018-Sep-20 22:00N 44°01' E 014°12'  
2018-Sep-17 20:16N 37°05' E 024°58'316.2
2018-Sep-17 20:03N 37°08' E 024°59'116.3
2018-Sep-17 20:00N 37°09' E 024°60'816.5
2018-Sep-17 19:31N 37°17' E 025°03'716.5
2018-Sep-17 19:03N 37°23' E 025°08'116.7
2018-Sep-17 19:00N 37°24' E 025°08'815.3
2018-Sep-17 18:30N 37°28' E 025°16'2 4.8
2018-Sep-17 18:02N 37°28' E 025°19'0 0.0
2018-Sep-17 17:59N 37°28' E 025°19'0 0.0
2018-Sep-17 17:26N 37°28' E 025°19'0 0.0
2018-Sep-17 17:01N 37°28' E 025°19'0 0.0
2018-Sep-17 16:58N 37°28' E 025°19'0 0.0
2018-Sep-17 16:28N 37°28' E 025°19'0 0.0
2018-Sep-17 16:01N 37°28' E 025°19'0 0.0
2018-Sep-17 15:58N 37°28' E 025°19'0 0.0
2018-Sep-17 15:28N 37°28' E 025°19'0 0.0
2018-Sep-17 15:01N 37°28' E 025°19'0 0.0
2018-Sep-17 14:58N 37°28' E 025°19'0 0.0
2018-Sep-17 14:30N 37°28' E 025°19'0 0.0
2018-Sep-17 14:00N 37°28' E 025°19'0 0.0
2018-Sep-17 13:27N 37°28' E 025°19'0 0.0
2018-Sep-17 13:03N 37°28' E 025°19'0 0.0
2018-Sep-17 12:54N 37°28' E 025°19'0 0.0
2018-Sep-17 12:30N 37°28' E 025°19'0 0.0
2018-Sep-17 12:02N 37°28' E 025°19'0 0.0
2018-Sep-17 11:59N 37°28' E 025°19'0 0.0
2018-Sep-17 11:29N 37°28' E 025°19'0 0.0
2018-Sep-17 11:02N 37°28' E 025°19'0 0.0
2018-Sep-17 10:59N 37°28' E 025°19'0 0.0
2018-Sep-17 10:26N 37°28' E 025°19'0 0.0
2018-Sep-17 09:58N 37°28' E 025°19'0 0.0
2018-Sep-17 09:28N 37°28' E 025°19'0 0.0
2018-Sep-17 09:01N 37°28' E 025°19'0 0.0
2018-Sep-17 08:58N 37°28' E 025°19'0 0.0
2018-Sep-17 08:28N 37°28' E 025°19'0 0.0
2018-Sep-17 08:01N 37°28' E 025°19'0 0.0
2018-Sep-17 07:58N 37°28' E 025°19'0 0.0
2018-Sep-17 07:24N 37°28' E 025°19'0 0.0
2018-Sep-17 07:03N 37°28' E 025°19'0 0.0
2018-Sep-17 07:00N 37°28' E 025°19'0 0.0
2018-Sep-17 06:30N 37°28' E 025°19'0 0.0
2018-Sep-17 06:03N 37°28' E 025°19'0 0.0
2018-Sep-17 06:00N 37°28' E 025°19'0 0.0
2018-Sep-17 05:29N 37°28' E 025°19'0 0.0
2018-Sep-17 05:02N 37°28' E 025°19'0 0.0
2018-Sep-17 04:59N 37°28' E 025°19'0 0.0
2018-Sep-17 04:29N 37°28' E 025°19'0 0.0
2018-Sep-17 04:02N 37°28' E 025°19'0 0.0
2018-Sep-17 04:00N 37°28' E 025°19'1 2.5
2018-Sep-17 03:30N 37°28' E 025°18'614.3
2018-Sep-17 03:04N 37°27' E 025°10'116.6
2018-Sep-17 03:01N 37°26' E 025°09'816.2
2018-Sep-17 02:31N 37°20' E 025°04'715.1
2018-Sep-17 02:03N 37°16' E 024°56'113.4
2018-Sep-17 02:00N 37°15' E 024°56'61612.3
2018-Sep-15 00:05N 43°35' E 014°18'120.3
2018-Sep-15 00:03N 43°36' E 014°17'620.3
2018-Sep-14 23:45N 43°40' E 014°11'720.1
2018-Sep-14 23:24N 43°45' E 014°04'1120.2
2018-Sep-14 22:52N 43°51' E 013°52'2320.0
2018-Sep-14 21:44N 44°04' E 013°27'520.0
2018-Sep-14 21:29N 44°07' E 013°21'919.8
2018-Sep-14 21:03N 44°13' E 013°12'320.0
2018-Sep-14 20:55N 44°15' E 013°11'  
Track history (hours):
 
Tides and Currents Weather Stations Pressure Air Temp Water Temp Dewpoint Dewpoint Depression Visibility Wind Speed Wind Dir Waves Ship Positions

MSC Lirica

Operator: Mediterranean Shipping Company

Last reported at 2018-Sep-24 20:31 UTC. Time now 2018-Sep-24 22:01 UTC.
Position N 37°05' E 024°58'.

Length 275 m; draft 6.8 m.

Type: Ship. MMSI: 356042000.

Date/timePositionNaut miles runAvg speedWind from/ knotsBaromVisibWave heightAir tempDewpointWater temp
2018-Sep-24 20:31N 37°05' E 024°58'017.1
2018-Sep-24 20:31N 37°05' E 024°58'817.7
2018-Sep-24 20:03N 37°13' E 025°01'117.8
2018-Sep-24 20:00N 37°13' E 025°02'917.4
2018-Sep-24 19:31N 37°21' E 025°06'716.3
2018-Sep-24 19:03N 37°27' E 025°12'115.2
2018-Sep-24 19:00N 37°28' E 025°13'5 7.6
2018-Sep-24 18:19N 37°28' E 025°19'0 0.0
2018-Sep-24 18:03N 37°28' E 025°19'0 0.0
2018-Sep-24 18:00N 37°28' E 025°19'0 0.0
2018-Sep-24 17:30N 37°28' E 025°19'0 0.0
2018-Sep-24 17:03N 37°28' E 025°19'0 0.0
2018-Sep-24 17:00N 37°28' E 025°19'0 0.0
2018-Sep-24 16:30N 37°28' E 025°19'0 0.0
2018-Sep-24 16:00N 37°28' E 025°19'0 0.0
2018-Sep-24 15:29N 37°28' E 025°19'0 0.0
2018-Sep-24 15:02N 37°28' E 025°19'0 0.0
2018-Sep-24 14:59N 37°28' E 025°19'0 0.0
2018-Sep-24 14:29N 37°28' E 025°19'0 0.0
2018-Sep-24 13:59N 37°28' E 025°19'0 0.0
2018-Sep-24 13:28N 37°28' E 025°19'0 0.0
2018-Sep-24 13:01N 37°28' E 025°19'0 0.0
2018-Sep-24 12:58N 37°28' E 025°19'0 0.0
2018-Sep-24 12:28N 37°28' E 025°19'0 0.0
2018-Sep-24 12:01N 37°28' E 025°19'0 0.0
2018-Sep-24 11:58N 37°28' E 025°19'0 0.0
2018-Sep-24 11:28N 37°28' E 025°19'0 0.0
2018-Sep-24 11:03N 37°28' E 025°19'0 0.0
2018-Sep-24 11:00N 37°28' E 025°19'0 0.0
2018-Sep-24 10:30N 37°28' E 025°19'0 0.0
2018-Sep-24 10:03N 37°28' E 025°19'0 0.0
2018-Sep-24 10:00N 37°28' E 025°19'0 0.0
2018-Sep-24 09:30N 37°28' E 025°19'0 0.0
2018-Sep-24 09:03N 37°28' E 025°19'0 0.0
2018-Sep-24 08:59N 37°28' E 025°19'0 0.0
2018-Sep-24 08:28N 37°28' E 025°19'0 0.0
2018-Sep-24 08:02N 37°28' E 025°19'0 0.0
2018-Sep-24 07:59N 37°28' E 025°19'0 0.0
2018-Sep-24 07:29N 37°28' E 025°19'0 0.0
2018-Sep-24 07:02N 37°28' E 025°19'0 0.0
2018-Sep-24 06:59N 37°28' E 025°19'0 0.0
2018-Sep-24 06:28N 37°28' E 025°19'0 0.0
2018-Sep-24 06:01N 37°28' E 025°19'0 0.0
2018-Sep-24 05:58N 37°28' E 025°19'0 0.0
2018-Sep-24 05:28N 37°28' E 025°19'0 0.0
2018-Sep-24 05:01N 37°28' E 025°19'0 0.0
2018-Sep-24 04:58N 37°28' E 025°19'0 0.0
2018-Sep-24 04:28N 37°28' E 025°19'0 0.0
2018-Sep-24 04:03N 37°28' E 025°19'0 0.0
2018-Sep-24 04:00N 37°28' E 025°19'1 1.3
2018-Sep-24 03:30N 37°28' E 025°19'4 9.4
2018-Sep-24 03:03N 37°28' E 025°13'0 9.7
2018-Sep-24 03:00N 37°28' E 025°13'5 9.6
2018-Sep-24 02:30N 37°24' E 025°08'511.1
2018-Sep-24 02:01N 37°20' E 025°04'012.5
2018-Sep-24 02:00N 37°20' E 025°04'612.8
2018-Sep-24 01:30N 37°16' E 024°57'714.6
2018-Sep-24 01:04N 37°13' E 024°51'114.6
2018-Sep-24 01:01N 37°12' E 024°50'6914.2
2018-Sep-23 20:11N 36°35' E 023°37'514.3
2018-Sep-23 19:51N 36°32' E 023°32'1014.5
2018-Sep-23 19:10N 36°27' E 023°22'214.7
2018-Sep-23 19:03N 36°26' E 023°20'414.5
2018-Sep-23 18:47N 36°24' E 023°16'61214.0
2018-Sep-21 23:12N 43°46' E 014°02'620.1
2018-Sep-21 22:55N 43°50' E 013°56'1220.0
2018-Sep-21 22:19N 43°57' E 013°42'620.1
2018-Sep-21 22:03N 43°60' E 013°36'120.1
2018-Sep-21 22:00N 44°00' E 013°35'1020.2
2018-Sep-21 21:30N 44°06' E 013°23'920.0
2018-Sep-21 21:03N 44°11' E 013°13'119.7
2018-Sep-21 21:00N 44°12' E 013°13'1019.7
2018-Sep-21 20:30N 44°22' E 013°08'1019.4
2018-Sep-21 20:01N 44°31' E 013°04'019.9
2018-Sep-21 20:00N 44°31' E 013°04'1019.8
2018-Sep-21 19:29N 44°40' E 012°59'919.7
2018-Sep-21 19:02N 44°49' E 012°55'119.9
2018-Sep-21 19:00N 44°49' E 012°55'1019.9
2018-Sep-21 18:30N 44°58' E 012°48'919.6
2018-Sep-21 18:03N 45°06' E 012°42'119.7
2018-Sep-21 18:00N 45°07' E 012°41'1019.1
2018-Sep-21 17:29N 45°13' E 012°31'919.0
2018-Sep-21 17:02N 45°22' E 012°30'017.4
2018-Sep-21 17:00N 45°22' E 012°30'611.2
2018-Sep-21 16:30N 45°26' E 012°24'2 5.0
2018-Sep-21 16:03N 45°26' E 012°21'0 5.6
2018-Sep-21 16:00N 45°26' E 012°21'2 3.0
2018-Sep-21 15:30N 45°26' E 012°19'0 0.0
2018-Sep-21 15:03N 45°26' E 012°19'0 0.0
2018-Sep-21 15:00N 45°26' E 012°19'0 0.0
2018-Sep-21 14:03N 45°26' E 012°19'0 0.0
2018-Sep-21 13:29N 45°26' E 012°19'0 0.0
2018-Sep-21 13:02N 45°26' E 012°19'0 0.0
2018-Sep-21 12:59N 45°26' E 012°19'0 0.0
2018-Sep-21 12:29N 45°26' E 012°19'0 0.0
2018-Sep-21 12:02N 45°26' E 012°19'0 0.0
2018-Sep-21 11:59N 45°26' E 012°19'0 0.0
2018-Sep-21 11:28N 45°26' E 012°19'0 0.0
2018-Sep-21 11:01N 45°26' E 012°19'0 0.0
2018-Sep-21 10:58N 45°26' E 012°19'0 0.0
2018-Sep-21 10:25N 45°26' E 012°19'0 0.0
2018-Sep-21 10:01N 45°26' E 012°19'0 0.0
2018-Sep-21 09:58N 45°26' E 012°19'0 0.0
2018-Sep-21 09:28N 45°26' E 012°19'0 0.0
2018-Sep-21 09:03N 45°26' E 012°19'0 0.0
2018-Sep-21 09:00N 45°26' E 012°19'0 0.0
2018-Sep-21 08:30N 45°26' E 012°19'0 0.0
2018-Sep-21 08:03N 45°26' E 012°19'0 0.0
2018-Sep-21 08:00N 45°26' E 012°19'0 0.0
2018-Sep-21 07:30N 45°26' E 012°19'0 0.0
2018-Sep-21 07:03N 45°26' E 012°19'0 0.0
2018-Sep-21 07:00N 45°26' E 012°19'0 0.0
2018-Sep-21 06:29N 45°26' E 012°19'0 0.0
2018-Sep-21 06:02N 45°26' E 012°19'0 0.0
2018-Sep-21 05:59N 45°26' E 012°19'0 0.0
2018-Sep-21 05:29N 45°26' E 012°19'1 1.6
2018-Sep-21 05:03N 45°26' E 012°19'0 5.8
2018-Sep-21 05:00N 45°26' E 012°20'2 4.7
2018-Sep-21 04:30N 45°26' E 012°23'4 8.0
2018-Sep-21 04:04N 45°25' E 012°28'110.0
2018-Sep-21 04:00N 45°24' E 012°28'612.6
2018-Sep-21 03:30N 45°18' E 012°32'917.4
2018-Sep-21 02:59N 45°12' E 012°42'919.1
2018-Sep-21 02:31N 45°07' E 012°51'1019.2
2018-Sep-21 02:00N 45°02' E 013°04'1020.0
2018-Sep-21 01:30N 44°58' E 013°16'919.2
2018-Sep-21 01:04N 44°52' E 013°25'119.7
2018-Sep-21 01:00N 44°51' E 013°26'1019.9
2018-Sep-21 00:31N 44°43' E 013°34'1020.0
2018-Sep-21 00:01N 44°35' E 013°42'019.2
2018-Sep-21 00:00N 44°35' E 013°42'1020.0
2018-Sep-20 23:30N 44°26' E 013°49'920.0
2018-Sep-20 23:02N 44°19' E 013°57'119.8
2018-Sep-20 23:00N 44°18' E 013°57'1019.9
2018-Sep-20 22:31N 44°10' E 014°05'920.0
2018-Sep-20 22:03N 44°02' E 014°12'120.0
2018-Sep-20 22:00N 44°01' E 014°12'  
2018-Sep-17 20:16N 37°05' E 024°58'316.2
2018-Sep-17 20:03N 37°08' E 024°59'116.3
2018-Sep-17 20:00N 37°09' E 024°60'816.5
2018-Sep-17 19:31N 37°17' E 025°03'716.5
2018-Sep-17 19:03N 37°23' E 025°08'116.7
2018-Sep-17 19:00N 37°24' E 025°08'815.3
2018-Sep-17 18:30N 37°28' E 025°16'2 4.8
2018-Sep-17 18:02N 37°28' E 025°19'0 0.0
2018-Sep-17 17:59N 37°28' E 025°19'0 0.0
2018-Sep-17 17:26N 37°28' E 025°19'0 0.0
2018-Sep-17 17:01N 37°28' E 025°19'0 0.0
2018-Sep-17 16:58N 37°28' E 025°19'0 0.0
2018-Sep-17 16:28N 37°28' E 025°19'0 0.0
2018-Sep-17 16:01N 37°28' E 025°19'0 0.0
2018-Sep-17 15:58N 37°28' E 025°19'0 0.0
2018-Sep-17 15:28N 37°28' E 025°19'0 0.0
2018-Sep-17 15:01N 37°28' E 025°19'0 0.0
2018-Sep-17 14:58N 37°28' E 025°19'0 0.0
2018-Sep-17 14:30N 37°28' E 025°19'0 0.0
2018-Sep-17 14:00N 37°28' E 025°19'0 0.0
2018-Sep-17 13:27N 37°28' E 025°19'0 0.0
2018-Sep-17 13:03N 37°28' E 025°19'0 0.0
2018-Sep-17 12:54N 37°28' E 025°19'0 0.0
2018-Sep-17 12:30N 37°28' E 025°19'0 0.0
2018-Sep-17 12:02N 37°28' E 025°19'0 0.0
2018-Sep-17 11:59N 37°28' E 025°19'0 0.0
2018-Sep-17 11:29N 37°28' E 025°19'0 0.0
2018-Sep-17 11:02N 37°28' E 025°19'0 0.0
2018-Sep-17 10:59N 37°28' E 025°19'0 0.0
2018-Sep-17 10:26N 37°28' E 025°19'0 0.0
2018-Sep-17 09:58N 37°28' E 025°19'0 0.0
2018-Sep-17 09:28N 37°28' E 025°19'0 0.0
2018-Sep-17 09:01N 37°28' E 025°19'0 0.0
2018-Sep-17 08:58N 37°28' E 025°19'0 0.0
2018-Sep-17 08:28N 37°28' E 025°19'0 0.0
2018-Sep-17 08:01N 37°28' E 025°19'0 0.0
2018-Sep-17 07:58N 37°28' E 025°19'0 0.0
2018-Sep-17 07:24N 37°28' E 025°19'0 0.0
2018-Sep-17 07:03N 37°28' E 025°19'0 0.0
2018-Sep-17 07:00N 37°28' E 025°19'0 0.0
2018-Sep-17 06:30N 37°28' E 025°19'0 0.0
2018-Sep-17 06:03N 37°28' E 025°19'0 0.0
2018-Sep-17 06:00N 37°28' E 025°19'0 0.0
2018-Sep-17 05:29N 37°28' E 025°19'0 0.0
2018-Sep-17 05:02N 37°28' E 025°19'0 0.0
2018-Sep-17 04:59N 37°28' E 025°19'0 0.0
2018-Sep-17 04:29N 37°28' E 025°19'0 0.0
2018-Sep-17 04:02N 37°28' E 025°19'0 0.0
2018-Sep-17 04:00N 37°28' E 025°19'1 2.5
2018-Sep-17 03:30N 37°28' E 025°18'614.3
2018-Sep-17 03:04N 37°27' E 025°10'116.6
2018-Sep-17 03:01N 37°26' E 025°09'816.2
2018-Sep-17 02:31N 37°20' E 025°04'715.1
2018-Sep-17 02:03N 37°16' E 024°56'113.4
2018-Sep-17 02:00N 37°15' E 024°56'61612.3
2018-Sep-15 00:05N 43°35' E 014°18'120.3
2018-Sep-15 00:03N 43°36' E 014°17'620.3
2018-Sep-14 23:45N 43°40' E 014°11'720.1
2018-Sep-14 23:24N 43°45' E 014°04'1120.2
2018-Sep-14 22:52N 43°51' E 013°52'2320.0
2018-Sep-14 21:44N 44°04' E 013°27'520.0
2018-Sep-14 21:29N 44°07' E 013°21'919.8
2018-Sep-14 21:03N 44°13' E 013°12'320.0
2018-Sep-14 20:55N 44°15' E 013°11'  

Dump ship's entire track history